sensor_id;sensor_type;location;lat;lon;timestamp;P1;durP1;ratioP1;P2;durP2;ratioP2
74630;SDS011;63138;55.082;38.804;2022-10-14T00:01:48;15.70;;;7.60;;
74630;SDS011;63138;55.082;38.804;2022-10-14T00:04:14;14.83;;;7.80;;
74630;SDS011;63138;55.082;38.804;2022-10-14T00:06:40;14.48;;;7.30;;
74630;SDS011;63138;55.082;38.804;2022-10-14T00:09:08;14.38;;;7.28;;
74630;SDS011;63138;55.082;38.804;2022-10-14T00:11:35;11.60;;;6.90;;
74630;SDS011;63138;55.082;38.804;2022-10-14T00:14:10;14.82;;;7.80;;
74630;SDS011;63138;55.082;38.804;2022-10-14T00:16:39;18.27;;;8.18;;
74630;SDS011;63138;55.082;38.804;2022-10-14T00:19:08;11.50;;;6.47;;
74630;SDS011;63138;55.082;38.804;2022-10-14T00:21:35;12.98;;;7.43;;
74630;SDS011;63138;55.082;38.804;2022-10-14T00:24:04;13.93;;;7.27;;
74630;SDS011;63138;55.082;38.804;2022-10-14T00:26:34;15.20;;;7.88;;
74630;SDS011;63138;55.082;38.804;2022-10-14T00:29:03;14.88;;;7.20;;
74630;SDS011;63138;55.082;38.804;2022-10-14T00:31:33;13.80;;;7.53;;
74630;SDS011;63138;55.082;38.804;2022-10-14T00:33:59;14.50;;;7.30;;
74630;SDS011;63138;55.082;38.804;2022-10-14T00:36:25;14.93;;;7.68;;
74630;SDS011;63138;55.082;38.804;2022-10-14T00:38:52;16.00;;;7.88;;
74630;SDS011;63138;55.082;38.804;2022-10-14T00:46:28;15.30;;;8.13;;
74630;SDS011;63138;55.082;38.804;2022-10-14T00:51:40;16.05;;;7.50;;
74630;SDS011;63138;55.082;38.804;2022-10-14T00:54:10;15.88;;;9.00;;
74630;SDS011;63138;55.082;38.804;2022-10-14T00:56:39;16.27;;;8.48;;
74630;SDS011;63138;55.082;38.804;2022-10-14T00:59:08;14.53;;;8.30;;
74630;SDS011;63138;55.082;38.804;2022-10-14T01:01:35;16.35;;;8.07;;
74630;SDS011;63138;55.082;38.804;2022-10-14T01:04:01;15.75;;;8.18;;
74630;SDS011;63138;55.082;38.804;2022-10-14T01:09:21;14.73;;;7.95;;
74630;SDS011;63138;55.082;38.804;2022-10-14T01:17:34;13.80;;;8.40;;
74630;SDS011;63138;55.082;38.804;2022-10-14T01:28:32;13.20;;;8.00;;
74630;SDS011;63138;55.082;38.804;2022-10-14T01:31:09;15.48;;;8.35;;
74630;SDS011;63138;55.082;38.804;2022-10-14T01:33:43;16.13;;;8.00;;
74630;SDS011;63138;55.082;38.804;2022-10-14T01:38:50;15.23;;;8.50;;
74630;SDS011;63138;55.082;38.804;2022-10-14T01:41:21;19.20;;;9.18;;
74630;SDS011;63138;55.082;38.804;2022-10-14T01:43:54;16.20;;;8.75;;
74630;SDS011;63138;55.082;38.804;2022-10-14T01:46:25;16.90;;;8.85;;
74630;SDS011;63138;55.082;38.804;2022-10-14T01:48:58;16.50;;;8.93;;
74630;SDS011;63138;55.082;38.804;2022-10-14T01:51:28;17.60;;;9.07;;
74630;SDS011;63138;55.082;38.804;2022-10-14T01:54:03;14.80;;;8.63;;
74630;SDS011;63138;55.082;38.804;2022-10-14T01:56:35;17.85;;;9.13;;
74630;SDS011;63138;55.082;38.804;2022-10-14T01:59:02;15.93;;;8.82;;
74630;SDS011;63138;55.082;38.804;2022-10-14T02:01:30;22.83;;;9.57;;
74630;SDS011;63138;55.082;38.804;2022-10-14T02:03:56;15.90;;;8.43;;
74630;SDS011;63138;55.082;38.804;2022-10-14T02:06:29;18.02;;;8.68;;
74630;SDS011;63138;55.082;38.804;2022-10-14T02:09:02;17.27;;;9.23;;
74630;SDS011;63138;55.082;38.804;2022-10-14T02:14:24;15.18;;;8.98;;
74630;SDS011;63138;55.082;38.804;2022-10-14T02:17:00;17.55;;;9.00;;
74630;SDS011;63138;55.082;38.804;2022-10-14T02:22:12;20.35;;;9.23;;
74630;SDS011;63138;55.082;38.804;2022-10-14T02:25:47;15.20;;;8.37;;
74630;SDS011;63138;55.082;38.804;2022-10-14T02:28:02;20.13;;;9.10;;
74630;SDS011;63138;55.082;38.804;2022-10-14T02:30:35;18.85;;;8.63;;
74630;SDS011;63138;55.082;38.804;2022-10-14T02:33:05;16.88;;;8.60;;
74630;SDS011;63138;55.082;38.804;2022-10-14T02:35:32;15.38;;;8.50;;
74630;SDS011;63138;55.082;38.804;2022-10-14T02:38:03;15.87;;;8.80;;
74630;SDS011;63138;55.082;38.804;2022-10-14T02:40:44;14.82;;;8.00;;
74630;SDS011;63138;55.082;38.804;2022-10-14T02:43:11;16.65;;;9.38;;
74630;SDS011;63138;55.082;38.804;2022-10-14T02:45:38;15.57;;;8.68;;
74630;SDS011;63138;55.082;38.804;2022-10-14T02:48:06;17.60;;;8.75;;
74630;SDS011;63138;55.082;38.804;2022-10-14T02:50:35;15.67;;;8.60;;
74630;SDS011;63138;55.082;38.804;2022-10-14T02:53:02;21.00;;;9.52;;
74630;SDS011;63138;55.082;38.804;2022-10-14T02:55:28;16.05;;;8.60;;
74630;SDS011;63138;55.082;38.804;2022-10-14T02:57:54;19.08;;;9.13;;
74630;SDS011;63138;55.082;38.804;2022-10-14T03:00:20;15.43;;;8.10;;
74630;SDS011;63138;55.082;38.804;2022-10-14T03:02:46;17.27;;;8.68;;
74630;SDS011;63138;55.082;38.804;2022-10-14T03:05:14;17.73;;;8.63;;
74630;SDS011;63138;55.082;38.804;2022-10-14T03:07:40;15.93;;;8.35;;
74630;SDS011;63138;55.082;38.804;2022-10-14T03:10:10;16.90;;;8.60;;
74630;SDS011;63138;55.082;38.804;2022-10-14T03:12:36;14.27;;;8.23;;
74630;SDS011;63138;55.082;38.804;2022-10-14T03:15:02;14.23;;;8.68;;
74630;SDS011;63138;55.082;38.804;2022-10-14T03:17:29;15.93;;;8.07;;
74630;SDS011;63138;55.082;38.804;2022-10-14T03:20:00;15.20;;;9.23;;
74630;SDS011;63138;55.082;38.804;2022-10-14T03:22:28;17.33;;;8.27;;
74630;SDS011;63138;55.082;38.804;2022-10-14T03:24:55;16.52;;;9.30;;
74630;SDS011;63138;55.082;38.804;2022-10-14T03:27:43;16.33;;;9.07;;
74630;SDS011;63138;55.082;38.804;2022-10-14T03:30:12;18.08;;;8.77;;
74630;SDS011;63138;55.082;38.804;2022-10-14T03:32:50;16.85;;;8.80;;
74630;SDS011;63138;55.082;38.804;2022-10-14T03:35:47;21.10;;;9.33;;
74630;SDS011;63138;55.082;38.804;2022-10-14T03:38:17;16.38;;;8.73;;
74630;SDS011;63138;55.082;38.804;2022-10-14T03:40:44;16.17;;;9.13;;
74630;SDS011;63138;55.082;38.804;2022-10-14T03:43:11;19.95;;;9.50;;
74630;SDS011;63138;55.082;38.804;2022-10-14T03:45:46;19.92;;;10.10;;
74630;SDS011;63138;55.082;38.804;2022-10-14T03:48:15;20.00;;;8.97;;
74630;SDS011;63138;55.082;38.804;2022-10-14T03:50:41;14.23;;;7.72;;
74630;SDS011;63138;55.082;38.804;2022-10-14T03:53:07;20.80;;;9.30;;
74630;SDS011;63138;55.082;38.804;2022-10-14T03:55:35;20.55;;;9.27;;
74630;SDS011;63138;55.082;38.804;2022-10-14T03:58:03;17.73;;;9.90;;
74630;SDS011;63138;55.082;38.804;2022-10-14T04:00:30;17.52;;;9.45;;
74630;SDS011;63138;55.082;38.804;2022-10-14T04:03:14;15.73;;;8.88;;
74630;SDS011;63138;55.082;38.804;2022-10-14T04:05:41;16.77;;;9.02;;
74630;SDS011;63138;55.082;38.804;2022-10-14T04:08:12;18.88;;;9.45;;
74630;SDS011;63138;55.082;38.804;2022-10-14T04:10:43;18.93;;;9.23;;
74630;SDS011;63138;55.082;38.804;2022-10-14T04:13:12;15.60;;;8.98;;
74630;SDS011;63138;55.082;38.804;2022-10-14T04:15:39;17.83;;;9.27;;
74630;SDS011;63138;55.082;38.804;2022-10-14T04:18:09;20.67;;;9.07;;
74630;SDS011;63138;55.082;38.804;2022-10-14T04:20:37;21.85;;;9.32;;
74630;SDS011;63138;55.082;38.804;2022-10-14T04:23:04;18.30;;;9.57;;
74630;SDS011;63138;55.082;38.804;2022-10-14T04:25:31;16.85;;;9.82;;
74630;SDS011;63138;55.082;38.804;2022-10-14T04:28:01;15.63;;;8.60;;
74630;SDS011;63138;55.082;38.804;2022-10-14T04:30:39;15.95;;;8.10;;
74630;SDS011;63138;55.082;38.804;2022-10-14T04:33:09;17.88;;;8.35;;
74630;SDS011;63138;55.082;38.804;2022-10-14T04:35:35;17.27;;;8.87;;
74630;SDS011;63138;55.082;38.804;2022-10-14T04:38:04;17.50;;;8.80;;
74630;SDS011;63138;55.082;38.804;2022-10-14T04:40:30;15.57;;;8.40;;
74630;SDS011;63138;55.082;38.804;2022-10-14T04:42:57;14.10;;;8.13;;
74630;SDS011;63138;55.082;38.804;2022-10-14T04:45:30;14.25;;;8.52;;
74630;SDS011;63138;55.082;38.804;2022-10-14T04:48:00;15.45;;;9.25;;
74630;SDS011;63138;55.082;38.804;2022-10-14T04:50:26;16.52;;;8.45;;
74630;SDS011;63138;55.082;38.804;2022-10-14T04:53:12;19.73;;;9.02;;
74630;SDS011;63138;55.082;38.804;2022-10-14T04:55:44;13.30;;;8.77;;
74630;SDS011;63138;55.082;38.804;2022-10-14T04:58:11;14.85;;;8.57;;
74630;SDS011;63138;55.082;38.804;2022-10-14T05:00:40;18.13;;;9.27;;
74630;SDS011;63138;55.082;38.804;2022-10-14T05:03:35;15.13;;;8.45;;
74630;SDS011;63138;55.082;38.804;2022-10-14T05:06:02;15.82;;;9.43;;
74630;SDS011;63138;55.082;38.804;2022-10-14T05:08:28;15.70;;;9.00;;
74630;SDS011;63138;55.082;38.804;2022-10-14T05:10:57;18.98;;;8.77;;
74630;SDS011;63138;55.082;38.804;2022-10-14T05:13:41;19.45;;;8.95;;
74630;SDS011;63138;55.082;38.804;2022-10-14T05:16:07;18.95;;;9.50;;
74630;SDS011;63138;55.082;38.804;2022-10-14T05:18:34;19.25;;;8.60;;
74630;SDS011;63138;55.082;38.804;2022-10-14T05:21:06;14.60;;;8.33;;
74630;SDS011;63138;55.082;38.804;2022-10-14T05:23:49;16.33;;;8.20;;
74630;SDS011;63138;55.082;38.804;2022-10-14T05:26:16;15.15;;;8.15;;
74630;SDS011;63138;55.082;38.804;2022-10-14T05:28:42;19.10;;;7.68;;
74630;SDS011;63138;55.082;38.804;2022-10-14T05:31:08;17.55;;;9.00;;
74630;SDS011;63138;55.082;38.804;2022-10-14T05:33:41;16.43;;;7.70;;
74630;SDS011;63138;55.082;38.804;2022-10-14T05:36:08;14.07;;;7.88;;
74630;SDS011;63138;55.082;38.804;2022-10-14T05:38:35;15.30;;;8.05;;
74630;SDS011;63138;55.082;38.804;2022-10-14T05:41:02;15.20;;;7.25;;
74630;SDS011;63138;55.082;38.804;2022-10-14T05:43:28;13.60;;;7.38;;
74630;SDS011;63138;55.082;38.804;2022-10-14T05:45:54;12.87;;;7.23;;
74630;SDS011;63138;55.082;38.804;2022-10-14T05:48:22;19.80;;;7.22;;
74630;SDS011;63138;55.082;38.804;2022-10-14T05:50:48;9.75;;;6.32;;
74630;SDS011;63138;55.082;38.804;2022-10-14T05:53:17;13.55;;;6.93;;
74630;SDS011;63138;55.082;38.804;2022-10-14T05:55:47;16.33;;;7.43;;
74630;SDS011;63138;55.082;38.804;2022-10-14T05:58:13;11.55;;;6.85;;
74630;SDS011;63138;55.082;38.804;2022-10-14T06:00:41;13.68;;;6.70;;
74630;SDS011;63138;55.082;38.804;2022-10-14T06:03:13;14.38;;;7.25;;
74630;SDS011;63138;55.082;38.804;2022-10-14T06:05:39;11.70;;;6.80;;
74630;SDS011;63138;55.082;38.804;2022-10-14T06:08:06;15.33;;;7.13;;
74630;SDS011;63138;55.082;38.804;2022-10-14T06:10:35;12.23;;;6.80;;
74630;SDS011;63138;55.082;38.804;2022-10-14T06:13:01;12.23;;;6.55;;
74630;SDS011;63138;55.082;38.804;2022-10-14T06:15:27;11.07;;;6.95;;
74630;SDS011;63138;55.082;38.804;2022-10-14T06:17:54;10.33;;;5.87;;
74630;SDS011;63138;55.082;38.804;2022-10-14T06:20:20;10.02;;;6.60;;
74630;SDS011;63138;55.082;38.804;2022-10-14T06:22:46;9.63;;;5.68;;
74630;SDS011;63138;55.082;38.804;2022-10-14T06:25:12;12.37;;;6.63;;
74630;SDS011;63138;55.082;38.804;2022-10-14T06:27:38;9.83;;;5.77;;
74630;SDS011;63138;55.082;38.804;2022-10-14T06:30:04;10.63;;;5.47;;
74630;SDS011;63138;55.082;38.804;2022-10-14T06:32:30;20.17;;;6.30;;
74630;SDS011;63138;55.082;38.804;2022-10-14T06:34:56;14.77;;;6.38;;
74630;SDS011;63138;55.082;38.804;2022-10-14T06:37:22;10.07;;;5.97;;
74630;SDS011;63138;55.082;38.804;2022-10-14T06:39:48;9.90;;;5.70;;
74630;SDS011;63138;55.082;38.804;2022-10-14T06:42:14;9.43;;;6.22;;
74630;SDS011;63138;55.082;38.804;2022-10-14T06:44:39;10.43;;;6.77;;
74630;SDS011;63138;55.082;38.804;2022-10-14T06:47:05;10.73;;;6.90;;
74630;SDS011;63138;55.082;38.804;2022-10-14T06:49:32;11.45;;;6.88;;
74630;SDS011;63138;55.082;38.804;2022-10-14T06:51:58;11.77;;;6.90;;
74630;SDS011;63138;55.082;38.804;2022-10-14T06:54:24;10.32;;;6.05;;
74630;SDS011;63138;55.082;38.804;2022-10-14T06:56:49;18.10;;;6.90;;
74630;SDS011;63138;55.082;38.804;2022-10-14T06:59:15;16.40;;;8.02;;
74630;SDS011;63138;55.082;38.804;2022-10-14T07:01:41;11.73;;;7.13;;
74630;SDS011;63138;55.082;38.804;2022-10-14T07:04:07;10.10;;;6.00;;
74630;SDS011;63138;55.082;38.804;2022-10-14T07:06:34;11.73;;;5.85;;
74630;SDS011;63138;55.082;38.804;2022-10-14T07:09:00;11.90;;;5.72;;
74630;SDS011;63138;55.082;38.804;2022-10-14T07:11:26;6.63;;;4.27;;
74630;SDS011;63138;55.082;38.804;2022-10-14T07:13:52;8.23;;;4.55;;
74630;SDS011;63138;55.082;38.804;2022-10-14T07:16:19;8.63;;;5.88;;
74630;SDS011;63138;55.082;38.804;2022-10-14T07:18:45;8.13;;;3.90;;
74630;SDS011;63138;55.082;38.804;2022-10-14T07:21:11;5.07;;;3.10;;
74630;SDS011;63138;55.082;38.804;2022-10-14T07:23:36;6.90;;;3.60;;
74630;SDS011;63138;55.082;38.804;2022-10-14T07:26:02;6.32;;;3.92;;
74630;SDS011;63138;55.082;38.804;2022-10-14T07:28:28;7.87;;;3.40;;
74630;SDS011;63138;55.082;38.804;2022-10-14T07:30:58;4.60;;;3.03;;
74630;SDS011;63138;55.082;38.804;2022-10-14T07:33:25;5.53;;;2.92;;
74630;SDS011;63138;55.082;38.804;2022-10-14T07:35:51;4.93;;;2.95;;
74630;SDS011;63138;55.082;38.804;2022-10-14T07:38:17;4.10;;;2.97;;
74630;SDS011;63138;55.082;38.804;2022-10-14T07:40:43;6.03;;;3.15;;
74630;SDS011;63138;55.082;38.804;2022-10-14T07:43:09;4.43;;;3.25;;
74630;SDS011;63138;55.082;38.804;2022-10-14T07:45:38;5.37;;;3.40;;
74630;SDS011;63138;55.082;38.804;2022-10-14T07:48:04;6.10;;;3.13;;
74630;SDS011;63138;55.082;38.804;2022-10-14T07:50:30;6.95;;;3.13;;
74630;SDS011;63138;55.082;38.804;2022-10-14T07:52:56;5.00;;;3.00;;
74630;SDS011;63138;55.082;38.804;2022-10-14T07:55:22;5.00;;;2.80;;
74630;SDS011;63138;55.082;38.804;2022-10-14T07:57:48;4.85;;;1.90;;
74630;SDS011;63138;55.082;38.804;2022-10-14T08:00:14;4.10;;;2.00;;
74630;SDS011;63138;55.082;38.804;2022-10-14T08:02:41;6.00;;;2.37;;
74630;SDS011;63138;55.082;38.804;2022-10-14T08:05:07;3.00;;;1.70;;
74630;SDS011;63138;55.082;38.804;2022-10-14T08:07:33;3.47;;;2.03;;
74630;SDS011;63138;55.082;38.804;2022-10-14T08:09:59;3.20;;;1.85;;
74630;SDS011;63138;55.082;38.804;2022-10-14T08:12:25;3.67;;;2.03;;
74630;SDS011;63138;55.082;38.804;2022-10-14T08:14:53;3.90;;;2.15;;
74630;SDS011;63138;55.082;38.804;2022-10-14T08:17:21;4.95;;;2.53;;
74630;SDS011;63138;55.082;38.804;2022-10-14T08:19:50;3.22;;;1.88;;
74630;SDS011;63138;55.082;38.804;2022-10-14T08:22:16;4.38;;;2.10;;
74630;SDS011;63138;55.082;38.804;2022-10-14T08:24:46;4.30;;;2.33;;
74630;SDS011;63138;55.082;38.804;2022-10-14T08:27:14;3.42;;;2.58;;
74630;SDS011;63138;55.082;38.804;2022-10-14T08:29:41;4.70;;;2.53;;
74630;SDS011;63138;55.082;38.804;2022-10-14T08:32:09;5.43;;;3.03;;
74630;SDS011;63138;55.082;38.804;2022-10-14T08:34:41;5.82;;;2.38;;
74630;SDS011;63138;55.082;38.804;2022-10-14T08:37:09;3.23;;;1.80;;
74630;SDS011;63138;55.082;38.804;2022-10-14T08:39:36;4.30;;;3.30;;
74630;SDS011;63138;55.082;38.804;2022-10-14T08:47:24;5.35;;;3.50;;
74630;SDS011;63138;55.082;38.804;2022-10-14T08:50:03;3.60;;;3.10;;
74630;SDS011;63138;55.082;38.804;2022-10-14T08:57:54;5.05;;;3.63;;
74630;SDS011;63138;55.082;38.804;2022-10-14T09:00:24;3.60;;;3.30;;
74630;SDS011;63138;55.082;38.804;2022-10-14T09:02:53;3.83;;;2.30;;
74630;SDS011;63138;55.082;38.804;2022-10-14T09:05:21;5.05;;;3.22;;
74630;SDS011;63138;55.082;38.804;2022-10-14T09:07:50;4.07;;;3.38;;
74630;SDS011;63138;55.082;38.804;2022-10-14T09:10:31;4.90;;;3.10;;
74630;SDS011;63138;55.082;38.804;2022-10-14T09:12:59;4.05;;;3.30;;
74630;SDS011;63138;55.082;38.804;2022-10-14T09:15:48;4.27;;;2.60;;
74630;SDS011;63138;55.082;38.804;2022-10-14T09:18:41;3.17;;;2.88;;
74630;SDS011;63138;55.082;38.804;2022-10-14T09:24:23;4.25;;;3.33;;
74630;SDS011;63138;55.082;38.804;2022-10-14T09:27:37;3.83;;;2.70;;
74630;SDS011;63138;55.082;38.804;2022-10-14T09:29:56;4.63;;;2.40;;
74630;SDS011;63138;55.082;38.804;2022-10-14T09:32:28;4.93;;;3.00;;
74630;SDS011;63138;55.082;38.804;2022-10-14T09:35:00;4.50;;;2.35;;
74630;SDS011;63138;55.082;38.804;2022-10-14T09:37:33;6.57;;;3.25;;
74630;SDS011;63138;55.082;38.804;2022-10-14T09:42:58;5.87;;;3.00;;
74630;SDS011;63138;55.082;38.804;2022-10-14T09:51:02;3.97;;;2.60;;
74630;SDS011;63138;55.082;38.804;2022-10-14T09:53:30;3.78;;;2.42;;
74630;SDS011;63138;55.082;38.804;2022-10-14T09:56:04;3.93;;;3.10;;
74630;SDS011;63138;55.082;38.804;2022-10-14T09:58:45;4.10;;;2.67;;
74630;SDS011;63138;55.082;38.804;2022-10-14T10:01:20;4.03;;;2.63;;
74630;SDS011;63138;55.082;38.804;2022-10-14T10:03:49;5.25;;;2.75;;
74630;SDS011;63138;55.082;38.804;2022-10-14T10:06:18;4.43;;;2.75;;
74630;SDS011;63138;55.082;38.804;2022-10-14T10:11:26;5.25;;;2.60;;
74630;SDS011;63138;55.082;38.804;2022-10-14T10:19:36;6.35;;;2.90;;
74630;SDS011;63138;55.082;38.804;2022-10-14T10:27:32;4.43;;;3.10;;
74630;SDS011;63138;55.082;38.804;2022-10-14T10:35:51;5.37;;;3.40;;
74630;SDS011;63138;55.082;38.804;2022-10-14T10:38:27;4.95;;;3.20;;
74630;SDS011;63138;55.082;38.804;2022-10-14T10:44:03;5.28;;;3.50;;
74630;SDS011;63138;55.082;38.804;2022-10-14T10:57:35;6.03;;;3.50;;
74630;SDS011;63138;55.082;38.804;2022-10-14T11:00:15;5.13;;;3.50;;
74630;SDS011;63138;55.082;38.804;2022-10-14T11:19:51;6.30;;;3.10;;
74630;SDS011;63138;55.082;38.804;2022-10-14T11:26:12;7.13;;;3.40;;
74630;SDS011;63138;55.082;38.804;2022-10-14T11:31:02;7.25;;;3.20;;
74630;SDS011;63138;55.082;38.804;2022-10-14T11:36:39;8.30;;;2.78;;
74630;SDS011;63138;55.082;38.804;2022-10-14T11:39:39;5.33;;;3.23;;
74630;SDS011;63138;55.082;38.804;2022-10-14T11:47:55;4.70;;;2.72;;
74630;SDS011;63138;55.082;38.804;2022-10-14T11:50:35;5.85;;;3.08;;
74630;SDS011;63138;55.082;38.804;2022-10-14T11:53:16;8.30;;;3.03;;
74630;SDS011;63138;55.082;38.804;2022-10-14T11:55:59;8.43;;;3.53;;
74630;SDS011;63138;55.082;38.804;2022-10-14T11:58:29;7.75;;;3.65;;
74630;SDS011;63138;55.082;38.804;2022-10-14T12:00:59;9.45;;;3.80;;
74630;SDS011;63138;55.082;38.804;2022-10-14T12:03:49;10.95;;;3.85;;
74630;SDS011;63138;55.082;38.804;2022-10-14T12:06:28;6.53;;;3.03;;
74630;SDS011;63138;55.082;38.804;2022-10-14T12:11:37;8.68;;;3.05;;
74630;SDS011;63138;55.082;38.804;2022-10-14T12:14:22;6.45;;;3.50;;
74630;SDS011;63138;55.082;38.804;2022-10-14T12:16:53;7.78;;;3.97;;
74630;SDS011;63138;55.082;38.804;2022-10-14T12:19:25;8.27;;;3.73;;
74630;SDS011;63138;55.082;38.804;2022-10-14T12:24:44;5.35;;;3.10;;
74630;SDS011;63138;55.082;38.804;2022-10-14T12:27:25;7.90;;;2.90;;
74630;SDS011;63138;55.082;38.804;2022-10-14T12:29:52;5.90;;;2.70;;
74630;SDS011;63138;55.082;38.804;2022-10-14T12:32:26;5.33;;;2.67;;
74630;SDS011;63138;55.082;38.804;2022-10-14T12:34:57;5.30;;;2.95;;
74630;SDS011;63138;55.082;38.804;2022-10-14T12:42:32;5.97;;;2.80;;
74630;SDS011;63138;55.082;38.804;2022-10-14T12:45:13;4.97;;;2.97;;
74630;SDS011;63138;55.082;38.804;2022-10-14T12:47:39;5.15;;;3.05;;
74630;SDS011;63138;55.082;38.804;2022-10-14T12:52:46;6.85;;;2.83;;
74630;SDS011;63138;55.082;38.804;2022-10-14T12:55:22;6.18;;;3.03;;
74630;SDS011;63138;55.082;38.804;2022-10-14T12:57:54;6.27;;;3.60;;
74630;SDS011;63138;55.082;38.804;2022-10-14T13:03:00;5.43;;;3.30;;
74630;SDS011;63138;55.082;38.804;2022-10-14T13:05:41;5.55;;;3.15;;
74630;SDS011;63138;55.082;38.804;2022-10-14T13:16:10;7.45;;;3.10;;
74630;SDS011;63138;55.082;38.804;2022-10-14T13:19:01;5.43;;;2.83;;
74630;SDS011;63138;55.082;38.804;2022-10-14T13:24:04;4.80;;;2.53;;
74630;SDS011;63138;55.082;38.804;2022-10-14T13:31:51;6.30;;;3.10;;
74630;SDS011;63138;55.082;38.804;2022-10-14T13:37:34;6.73;;;3.40;;
74630;SDS011;63138;55.082;38.804;2022-10-14T13:42:54;8.70;;;3.30;;
74630;SDS011;63138;55.082;38.804;2022-10-14T13:45:30;6.28;;;3.22;;
74630;SDS011;63138;55.082;38.804;2022-10-14T13:47:59;7.53;;;3.30;;
74630;SDS011;63138;55.082;38.804;2022-10-14T13:50:26;6.40;;;3.03;;
74630;SDS011;63138;55.082;38.804;2022-10-14T13:53:02;7.97;;;3.20;;
74630;SDS011;63138;55.082;38.804;2022-10-14T13:55:41;8.43;;;3.92;;
74630;SDS011;63138;55.082;38.804;2022-10-14T13:58:13;6.30;;;3.92;;
74630;SDS011;63138;55.082;38.804;2022-10-14T14:00:44;8.82;;;4.50;;
74630;SDS011;63138;55.082;38.804;2022-10-14T14:03:22;8.20;;;4.60;;
74630;SDS011;63138;55.082;38.804;2022-10-14T14:05:48;10.88;;;5.05;;
74630;SDS011;63138;55.082;38.804;2022-10-14T14:08:16;9.57;;;5.00;;
74630;SDS011;63138;55.082;38.804;2022-10-14T14:11:21;11.10;;;5.15;;
74630;SDS011;63138;55.082;38.804;2022-10-14T14:16:26;16.20;;;5.23;;
74630;SDS011;63138;55.082;38.804;2022-10-14T14:18:55;15.07;;;5.63;;
74630;SDS011;63138;55.082;38.804;2022-10-14T14:21:21;17.55;;;6.05;;
74630;SDS011;63138;55.082;38.804;2022-10-14T14:23:53;13.43;;;6.18;;
74630;SDS011;63138;55.082;38.804;2022-10-14T14:26:34;12.68;;;5.50;;
74630;SDS011;63138;55.082;38.804;2022-10-14T14:29:12;18.33;;;6.73;;
74630;SDS011;63138;55.082;38.804;2022-10-14T14:31:41;14.95;;;5.95;;
74630;SDS011;63138;55.082;38.804;2022-10-14T14:34:12;12.18;;;5.60;;
74630;SDS011;63138;55.082;38.804;2022-10-14T14:36:41;11.95;;;6.85;;
74630;SDS011;63138;55.082;38.804;2022-10-14T14:39:20;13.32;;;6.25;;
74630;SDS011;63138;55.082;38.804;2022-10-14T14:41:48;11.00;;;5.73;;
74630;SDS011;63138;55.082;38.804;2022-10-14T14:44:17;9.32;;;5.43;;
74630;SDS011;63138;55.082;38.804;2022-10-14T14:46:48;11.20;;;4.85;;
74630;SDS011;63138;55.082;38.804;2022-10-14T14:49:18;8.73;;;5.20;;
74630;SDS011;63138;55.082;38.804;2022-10-14T14:51:49;11.68;;;5.78;;
74630;SDS011;63138;55.082;38.804;2022-10-14T14:54:19;9.57;;;5.33;;
74630;SDS011;63138;55.082;38.804;2022-10-14T14:56:54;13.18;;;6.45;;
74630;SDS011;63138;55.082;38.804;2022-10-14T14:59:32;10.30;;;5.95;;
74630;SDS011;63138;55.082;38.804;2022-10-14T15:02:03;10.07;;;5.30;;
74630;SDS011;63138;55.082;38.804;2022-10-14T15:04:40;10.02;;;5.40;;
74630;SDS011;63138;55.082;38.804;2022-10-14T15:07:12;10.93;;;5.37;;
74630;SDS011;63138;55.082;38.804;2022-10-14T15:09:42;10.98;;;5.35;;
74630;SDS011;63138;55.082;38.804;2022-10-14T15:12:20;11.60;;;5.32;;
74630;SDS011;63138;55.082;38.804;2022-10-14T15:15:02;12.77;;;5.63;;
74630;SDS011;63138;55.082;38.804;2022-10-14T15:17:42;13.15;;;4.75;;
74630;SDS011;63138;55.082;38.804;2022-10-14T15:22:46;8.20;;;4.57;;
74630;SDS011;63138;55.082;38.804;2022-10-14T15:27:45;9.77;;;5.28;;
74630;SDS011;63138;55.082;38.804;2022-10-14T15:32:45;14.80;;;5.63;;
74630;SDS011;63138;55.082;38.804;2022-10-14T15:35:12;11.77;;;5.30;;
74630;SDS011;63138;55.082;38.804;2022-10-14T15:37:39;12.85;;;5.45;;
74630;SDS011;63138;55.082;38.804;2022-10-14T15:40:09;13.43;;;5.90;;
74630;SDS011;63138;55.082;38.804;2022-10-14T15:42:36;16.45;;;6.45;;
74630;SDS011;63138;55.082;38.804;2022-10-14T15:45:02;13.03;;;7.77;;
74630;SDS011;63138;55.082;38.804;2022-10-14T15:47:31;17.33;;;8.25;;
74630;SDS011;63138;55.082;38.804;2022-10-14T15:49:57;15.25;;;8.45;;
74630;SDS011;63138;55.082;38.804;2022-10-14T15:52:23;17.63;;;7.90;;
74630;SDS011;63138;55.082;38.804;2022-10-14T15:54:48;14.35;;;7.90;;
74630;SDS011;63138;55.082;38.804;2022-10-14T15:57:15;17.35;;;7.65;;
74630;SDS011;63138;55.082;38.804;2022-10-14T15:59:43;13.23;;;7.45;;
74630;SDS011;63138;55.082;38.804;2022-10-14T16:02:12;13.37;;;7.23;;
74630;SDS011;63138;55.082;38.804;2022-10-14T16:04:45;13.55;;;6.32;;
74630;SDS011;63138;55.082;38.804;2022-10-14T16:07:12;10.27;;;5.13;;
74630;SDS011;63138;55.082;38.804;2022-10-14T16:09:42;11.02;;;5.45;;
74630;SDS011;63138;55.082;38.804;2022-10-14T16:12:11;10.77;;;5.37;;
74630;SDS011;63138;55.082;38.804;2022-10-14T16:14:38;8.52;;;4.68;;
74630;SDS011;63138;55.082;38.804;2022-10-14T16:17:03;10.57;;;4.65;;
74630;SDS011;63138;55.082;38.804;2022-10-14T16:19:30;10.48;;;4.10;;
74630;SDS011;63138;55.082;38.804;2022-10-14T16:21:56;9.57;;;3.97;;
74630;SDS011;63138;55.082;38.804;2022-10-14T16:24:22;7.38;;;3.60;;
74630;SDS011;63138;55.082;38.804;2022-10-14T16:26:51;8.80;;;3.67;;
74630;SDS011;63138;55.082;38.804;2022-10-14T16:29:18;10.02;;;4.05;;
74630;SDS011;63138;55.082;38.804;2022-10-14T16:31:48;8.02;;;3.72;;
74630;SDS011;63138;55.082;38.804;2022-10-14T16:34:15;11.07;;;4.13;;
74630;SDS011;63138;55.082;38.804;2022-10-14T16:36:43;7.13;;;3.40;;
74630;SDS011;63138;55.082;38.804;2022-10-14T16:39:11;6.70;;;3.30;;
74630;SDS011;63138;55.082;38.804;2022-10-14T16:41:37;7.00;;;3.47;;
74630;SDS011;63138;55.082;38.804;2022-10-14T16:44:03;8.02;;;4.10;;
74630;SDS011;63138;55.082;38.804;2022-10-14T16:46:30;6.87;;;3.60;;
74630;SDS011;63138;55.082;38.804;2022-10-14T16:49:15;6.60;;;3.53;;
74630;SDS011;63138;55.082;38.804;2022-10-14T16:51:41;8.07;;;3.08;;
74630;SDS011;63138;55.082;38.804;2022-10-14T16:54:08;6.63;;;4.00;;
74630;SDS011;63138;55.082;38.804;2022-10-14T16:56:34;7.53;;;3.50;;
74630;SDS011;63138;55.082;38.804;2022-10-14T16:59:19;7.47;;;3.70;;
74630;SDS011;63138;55.082;38.804;2022-10-14T17:01:46;6.55;;;3.47;;
74630;SDS011;63138;55.082;38.804;2022-10-14T17:04:18;8.75;;;3.63;;
74630;SDS011;63138;55.082;38.804;2022-10-14T17:06:46;6.38;;;3.30;;
74630;SDS011;63138;55.082;38.804;2022-10-14T17:09:14;8.60;;;3.57;;
74630;SDS011;63138;55.082;38.804;2022-10-14T17:11:40;5.85;;;3.25;;
74630;SDS011;63138;55.082;38.804;2022-10-14T17:14:07;7.97;;;4.10;;
74630;SDS011;63138;55.082;38.804;2022-10-14T17:16:35;6.95;;;3.60;;
74630;SDS011;63138;55.082;38.804;2022-10-14T17:19:01;9.43;;;3.60;;
74630;SDS011;63138;55.082;38.804;2022-10-14T17:21:26;7.15;;;3.50;;
74630;SDS011;63138;55.082;38.804;2022-10-14T17:24:00;6.13;;;3.75;;
74630;SDS011;63138;55.082;38.804;2022-10-14T17:26:26;9.50;;;3.72;;
74630;SDS011;63138;55.082;38.804;2022-10-14T17:28:54;7.97;;;3.93;;
74630;SDS011;63138;55.082;38.804;2022-10-14T17:31:20;8.43;;;4.20;;
74630;SDS011;63138;55.082;38.804;2022-10-14T17:33:47;5.75;;;3.63;;